createdAt,value
2023-02-22T00:00:48.341Z,68.17
2023-02-22T00:03:18.030Z,68.37
2023-02-22T00:05:47.848Z,68.32
2023-02-22T00:08:15.748Z,68.41
2023-02-22T00:10:43.186Z,68.78
2023-02-22T00:13:13.573Z,68.73
2023-02-22T00:15:41.631Z,68.83
2023-02-22T00:18:10.638Z,68.44
2023-02-22T00:20:40.906Z,68.67
2023-02-22T00:23:10.475Z,68.84
2023-02-22T00:25:37.183Z,69.03
2023-02-22T00:28:05.116Z,69.01
2023-02-22T00:30:33.772Z,69.30
2023-02-22T00:33:00.992Z,69.36
2023-02-22T00:35:30.128Z,69.48
2023-02-22T00:38:02.086Z,69.71
2023-02-22T00:40:34.560Z,69.74
2023-02-22T00:43:04.254Z,69.62
2023-02-22T00:45:33.629Z,70.00
2023-02-22T00:48:01.960Z,70.16
2023-02-22T00:50:30.509Z,70.16
2023-02-22T00:52:58.824Z,70.11
2023-02-22T00:55:28.508Z,70.34
2023-02-22T00:57:56.302Z,69.85
2023-02-22T01:00:31.434Z,70.55
2023-02-22T01:02:58.091Z,70.86
2023-02-22T01:05:28.360Z,70.76
2023-02-22T01:07:56.582Z,70.52
2023-02-22T01:10:27.542Z,70.49
2023-02-22T01:12:54.719Z,70.49
2023-02-22T01:15:23.565Z,70.36
2023-02-22T01:17:53.753Z,70.48
2023-02-22T01:20:23.016Z,70.38
2023-02-22T01:22:51.489Z,70.38
2023-02-22T01:25:21.287Z,70.32
2023-02-22T01:27:50.288Z,70.19
2023-02-22T01:30:22.227Z,70.25
2023-02-22T01:32:51.590Z,69.84
2023-02-22T01:35:24.378Z,70.39
2023-02-22T01:37:51.286Z,70.39
2023-02-22T01:40:28.520Z,70.39
2023-02-22T01:42:58.786Z,70.34
2023-02-22T01:45:34.462Z,70.26
2023-02-22T01:48:06.194Z,70.25
2023-02-22T01:50:37.315Z,69.81
2023-02-22T01:53:05.488Z,70.20
2023-02-22T01:55:35.542Z,70.31
2023-02-22T01:58:05.156Z,70.58
2023-02-22T02:00:32.506Z,69.85
2023-02-22T02:03:08.361Z,69.96
2023-02-22T02:05:39.246Z,70.16
2023-02-22T02:08:17.323Z,70.42
2023-02-22T02:10:44.332Z,70.44
2023-02-22T02:13:11.344Z,70.46
2023-02-22T02:15:38.105Z,70.49
2023-02-22T02:18:07.912Z,70.56
2023-02-22T02:21:16.195Z,70.48
2023-02-22T02:24:09.217Z,70.57
2023-02-22T02:27:01.010Z,70.65
2023-02-22T02:30:19.388Z,70.54
2023-02-22T02:33:05.339Z,70.64
2023-02-22T02:35:39.372Z,70.82
2023-02-22T02:38:22.225Z,70.89
2023-02-22T02:41:18.809Z,70.86
2023-02-22T02:44:10.318Z,70.88
2023-02-22T02:46:46.941Z,70.65
2023-02-22T02:49:20.552Z,70.41
2023-02-22T02:51:52.438Z,70.60
2023-02-22T02:54:22.487Z,70.74
2023-02-22T02:56:52.332Z,70.73
2023-02-22T02:59:33.501Z,70.80
2023-02-22T03:02:26.538Z,70.90
2023-02-22T03:05:25.955Z,71.12
2023-02-22T03:08:00.699Z,70.79
2023-02-22T03:10:33.345Z,70.80
2023-02-22T03:13:14.618Z,70.90
2023-02-22T03:15:51.520Z,70.96
2023-02-22T03:18:29.171Z,71.02
2023-02-22T03:21:24.229Z,70.89
2023-02-22T03:24:21.042Z,71.02
2023-02-22T03:27:21.842Z,70.96
2023-02-22T03:29:54.219Z,71.07
2023-02-22T03:32:27.864Z,70.79
2023-02-22T03:35:02.355Z,71.11
2023-02-22T03:37:34.221Z,71.35
2023-02-22T03:40:14.106Z,71.35
2023-02-22T03:42:51.215Z,71.48
2023-02-22T03:45:24.416Z,71.53
2023-02-22T03:48:01.833Z,71.46
2023-02-22T03:50:35.816Z,71.69
2023-02-22T03:53:04.462Z,71.67
2023-02-22T03:55:32.966Z,71.77
2023-02-22T03:58:05.049Z,71.81
2023-02-22T04:00:33.940Z,71.62
2023-02-22T04:03:01.852Z,70.85
2023-02-22T04:05:28.568Z,71.31
2023-02-22T04:07:57.735Z,71.37
2023-02-22T04:10:25.431Z,71.40
2023-02-22T04:12:55.645Z,71.41
2023-02-22T04:15:24.119Z,71.54
2023-02-22T04:17:55.133Z,71.52
2023-02-22T04:20:25.578Z,71.53
2023-02-22T04:22:58.002Z,71.62
2023-02-22T04:25:24.875Z,71.61
2023-02-22T04:27:52.783Z,71.67
2023-02-22T04:30:24.613Z,71.54
2023-02-22T04:32:51.391Z,71.73
2023-02-22T04:35:20.998Z,71.66
2023-02-22T04:37:47.858Z,71.57
2023-02-22T04:40:18.799Z,71.51
2023-02-22T04:42:47.053Z,71.65
2023-02-22T04:45:14.212Z,71.51
2023-02-22T04:47:41.058Z,71.45
2023-02-22T04:50:11.178Z,71.46
2023-02-22T04:52:37.876Z,71.51
2023-02-22T04:55:07.591Z,71.68
2023-02-22T04:57:35.813Z,71.81
2023-02-22T05:00:02.572Z,72.00
2023-02-22T05:02:31.532Z,72.36
2023-02-22T05:04:58.150Z,72.32
2023-02-22T05:07:24.930Z,72.39
2023-02-22T05:09:51.642Z,72.78
2023-02-22T05:12:18.248Z,72.35
2023-02-22T05:14:45.050Z,72.38
2023-02-22T05:17:11.703Z,72.32
2023-02-22T05:19:38.724Z,72.59
2023-02-22T05:22:05.850Z,72.53
2023-02-22T05:24:32.742Z,72.33
2023-02-22T05:26:59.426Z,72.04
2023-02-22T05:29:26.430Z,72.29
2023-02-22T05:31:53.181Z,72.19
2023-02-22T05:34:19.903Z,72.14
2023-02-22T05:36:46.623Z,72.04
2023-02-22T05:39:13.335Z,72.09
2023-02-22T05:41:39.951Z,72.11
2023-02-22T05:44:06.620Z,71.92
2023-02-22T05:46:33.312Z,72.14
2023-02-22T05:49:00.173Z,72.28
2023-02-22T05:51:26.768Z,72.31
2023-02-22T05:53:53.402Z,72.23
2023-02-22T05:56:24.686Z,72.15
2023-02-22T05:58:51.660Z,72.14
2023-02-22T06:01:18.995Z,71.97
2023-02-22T06:03:49.998Z,72.11
2023-02-22T06:06:19.223Z,71.95
2023-02-22T06:08:46.945Z,71.94
2023-02-22T06:11:13.869Z,72.13
2023-02-22T06:13:41.408Z,72.00
2023-02-22T06:16:08.506Z,72.11
2023-02-22T06:18:35.320Z,71.97
2023-02-22T06:21:02.234Z,72.02
2023-02-22T06:23:28.968Z,72.05
2023-02-22T06:25:55.645Z,71.93
2023-02-22T06:28:23.831Z,71.90
2023-02-22T06:30:50.665Z,72.01
2023-02-22T06:33:17.248Z,71.94
2023-02-22T06:35:45.262Z,71.89
2023-02-22T06:38:11.848Z,72.05
2023-02-22T06:40:38.422Z,72.06
2023-02-22T06:43:05.073Z,71.97
2023-02-22T06:45:31.803Z,71.92
2023-02-22T06:47:58.460Z,72.02
2023-02-22T06:50:28.968Z,71.93
2023-02-22T06:52:56.757Z,71.99
2023-02-22T06:55:26.202Z,71.93
2023-02-22T06:57:53.410Z,71.94
2023-02-22T07:00:24.541Z,71.90
2023-02-22T07:02:51.946Z,71.94
2023-02-22T07:05:23.624Z,71.91
2023-02-22T07:07:55.436Z,71.96
2023-02-22T07:10:27.822Z,71.77
2023-02-22T07:12:55.034Z,71.74
2023-02-22T07:15:24.156Z,71.80
2023-02-22T07:17:51.932Z,71.79
2023-02-22T07:20:20.791Z,71.62
2023-02-22T07:22:48.405Z,71.79
2023-02-22T07:25:15.260Z,71.59
2023-02-22T07:27:43.116Z,71.58
2023-02-22T07:30:18.923Z,71.85
2023-02-22T07:32:47.341Z,72.59
2023-02-22T07:35:27.338Z,72.36
2023-02-22T07:37:55.945Z,72.02
2023-02-22T07:40:24.379Z,71.90
2023-02-22T07:43:21.891Z,71.89
2023-02-22T07:45:50.302Z,71.99
2023-02-22T07:48:18.312Z,71.93
2023-02-22T07:50:45.679Z,71.63
2023-02-22T07:53:15.398Z,71.77
2023-02-22T07:55:45.160Z,71.67
2023-02-22T07:58:15.861Z,71.71
2023-02-22T08:00:47.346Z,71.51
2023-02-22T08:03:16.394Z,71.53
2023-02-22T08:05:46.993Z,71.15
2023-02-22T08:08:19.748Z,71.07
2023-02-22T08:10:47.427Z,70.67
2023-02-22T08:13:14.927Z,70.41
2023-02-22T08:15:44.384Z,69.98
2023-02-22T08:18:18.496Z,69.65
2023-02-22T08:20:46.993Z,69.33
2023-02-22T08:23:15.475Z,69.35
2023-02-22T08:25:42.249Z,69.28
2023-02-22T08:28:15.366Z,69.88
2023-02-22T08:30:43.894Z,70.17
2023-02-22T08:33:14.567Z,70.23
2023-02-22T08:35:41.879Z,70.24
2023-02-22T08:38:15.380Z,70.58
2023-02-22T08:40:42.124Z,70.26
2023-02-22T08:43:08.748Z,70.87
2023-02-22T08:45:35.554Z,70.74
2023-02-22T08:48:02.737Z,70.64
2023-02-22T08:50:33.729Z,70.64
2023-02-22T08:53:03.069Z,70.41
2023-02-22T08:55:32.726Z,70.33
2023-02-22T08:58:02.962Z,70.20
2023-02-22T09:00:35.396Z,69.73
2023-02-22T09:03:15.307Z,69.05
2023-02-22T09:05:43.449Z,68.34
2023-02-22T09:08:10.580Z,68.20
2023-02-22T09:10:37.595Z,68.06
2023-02-22T09:13:04.948Z,67.24
2023-02-22T09:15:33.042Z,66.35
2023-02-22T09:18:00.164Z,66.63
2023-02-22T09:20:28.123Z,66.02
2023-02-22T09:22:55.369Z,64.35
2023-02-22T09:25:23.410Z,63.90
2023-02-22T09:27:54.537Z,63.56
2023-02-22T09:30:33.514Z,64.48
2023-02-22T09:33:10.173Z,61.63
2023-02-22T09:35:37.950Z,61.48
2023-02-22T09:38:08.479Z,59.94
2023-02-22T09:40:45.164Z,60.02
2023-02-22T09:43:50.754Z,60.50
2023-02-22T09:46:34.746Z,60.14
2023-02-22T09:49:19.606Z,59.85
2023-02-22T09:51:58.761Z,59.84
2023-02-22T09:54:45.413Z,59.76
2023-02-22T09:57:32.056Z,60.02
2023-02-22T10:00:15.555Z,60.93
2023-02-22T10:03:08.293Z,61.10
2023-02-22T10:05:41.958Z,60.53
2023-02-22T10:08:14.718Z,59.63
2023-02-22T10:10:46.200Z,59.84
2023-02-22T10:13:31.609Z,59.77
2023-02-22T10:16:25.711Z,60.17
2023-02-22T10:19:08.481Z,59.73
2023-02-22T10:21:47.514Z,60.04
2023-02-22T10:24:32.620Z,59.91
2023-02-22T10:27:00.972Z,60.10
2023-02-22T10:29:53.259Z,59.92
2023-02-22T10:32:29.185Z,58.23
2023-02-22T10:35:03.369Z,58.52
2023-02-22T10:37:32.945Z,58.39
2023-02-22T10:40:23.093Z,59.21
2023-02-22T10:42:50.332Z,58.22
2023-02-22T10:45:25.856Z,58.32
2023-02-22T10:47:56.266Z,58.71
2023-02-22T10:50:23.017Z,58.45
2023-02-22T10:52:49.949Z,58.82
2023-02-22T10:55:17.329Z,59.33
2023-02-22T10:57:50.865Z,58.90
2023-02-22T11:00:30.503Z,58.57
2023-02-22T11:02:58.322Z,58.21
2023-02-22T11:05:38.665Z,58.25
2023-02-22T11:08:24.707Z,58.44
2023-02-22T11:11:01.962Z,58.34
2023-02-22T11:13:38.068Z,58.16
2023-02-22T11:16:20.158Z,58.33
2023-02-22T11:18:49.677Z,58.85
2023-02-22T11:21:23.102Z,58.94
2023-02-22T11:24:01.130Z,58.92
2023-02-22T11:26:28.749Z,58.86
2023-02-22T11:28:56.669Z,59.28
2023-02-22T11:31:27.856Z,58.61
2023-02-22T11:36:41.068Z,58.62
2023-02-22T11:39:27.055Z,58.48
2023-02-22T11:41:56.703Z,58.89
2023-02-22T11:44:32.592Z,59.28
2023-02-22T11:47:07.215Z,58.63
2023-02-22T11:49:38.360Z,58.93
2023-02-22T11:52:05.074Z,58.66
2023-02-22T11:54:52.816Z,58.87
2023-02-22T11:57:31.724Z,58.82
2023-02-22T12:00:15.494Z,58.95
2023-02-22T12:02:57.340Z,59.45
2023-02-22T12:05:59.844Z,59.23
2023-02-22T12:08:39.117Z,59.78
2023-02-22T12:11:20.677Z,59.86
2023-02-22T12:14:35.989Z,59.89
2023-02-22T12:17:09.045Z,60.33
2023-02-22T12:19:50.467Z,60.31
2023-02-22T12:22:25.720Z,60.30
2023-02-22T12:25:09.696Z,60.20
2023-02-22T12:27:43.595Z,60.41
2023-02-22T12:30:29.335Z,60.36
2023-02-22T12:33:00.203Z,60.17
2023-02-22T12:35:30.200Z,60.25
2023-02-22T12:38:04.747Z,60.05
2023-02-22T12:40:47.630Z,60.33
2023-02-22T12:43:23.403Z,60.27
2023-02-22T12:46:27.226Z,59.81
2023-02-22T12:49:20.934Z,59.73
2023-02-22T12:52:21.983Z,59.84
2023-02-22T12:54:59.534Z,59.78
2023-02-22T12:57:42.428Z,59.76
2023-02-22T13:00:23.320Z,59.84
2023-02-22T13:03:07.046Z,60.05
2023-02-22T13:05:43.438Z,59.78
2023-02-22T13:08:34.133Z,60.35
2023-02-22T13:11:04.769Z,60.77
2023-02-22T13:13:47.389Z,60.94
2023-02-22T13:16:33.723Z,60.75
2023-02-22T13:19:38.598Z,61.33
2023-02-22T13:22:21.134Z,61.25
2023-02-22T13:25:00.084Z,61.01
2023-02-22T13:27:32.767Z,60.97
2023-02-22T13:30:01.880Z,61.04
2023-02-22T13:32:48.024Z,60.78
2023-02-22T13:35:42.531Z,61.08
2023-02-22T13:38:28.502Z,61.32
2023-02-22T13:41:10.489Z,61.36
2023-02-22T13:43:52.317Z,61.40
2023-02-22T13:46:40.307Z,61.42
2023-02-22T13:49:26.030Z,61.52
2023-02-22T13:51:59.014Z,61.67
2023-02-22T13:54:37.962Z,61.48
2023-02-22T13:57:17.157Z,61.33
2023-02-22T13:59:47.444Z,61.62
2023-02-22T14:02:52.757Z,61.69
2023-02-22T14:05:49.912Z,61.98
2023-02-22T14:08:19.801Z,62.45
2023-02-22T14:10:59.283Z,62.56
2023-02-22T14:13:30.861Z,62.23
2023-02-22T14:16:00.605Z,62.38
2023-02-22T14:18:42.970Z,62.26
2023-02-22T14:21:11.962Z,62.20
2023-02-22T14:23:41.479Z,61.95
2023-02-22T14:26:18.892Z,61.88
2023-02-22T14:28:50.981Z,62.09
2023-02-22T14:31:34.944Z,62.10
2023-02-22T14:34:08.354Z,62.82
2023-02-22T14:36:58.457Z,62.97
2023-02-22T14:39:43.650Z,62.93
2023-02-22T14:42:17.821Z,62.61
2023-02-22T14:45:12.639Z,62.44
2023-02-22T14:48:16.528Z,62.37
2023-02-22T14:51:21.453Z,62.68
2023-02-22T14:53:52.953Z,62.71
2023-02-22T14:56:23.603Z,62.36
2023-02-22T14:59:07.915Z,62.51
2023-02-22T15:01:50.857Z,62.98
2023-02-22T15:04:28.959Z,62.91
2023-02-22T15:07:00.955Z,62.81
2023-02-22T15:09:37.205Z,62.82
2023-02-22T15:12:03.864Z,62.27
2023-02-22T15:14:37.723Z,62.51
2023-02-22T15:17:10.327Z,62.45
2023-02-22T15:19:40.223Z,63.10
2023-02-22T15:22:20.820Z,63.03
2023-02-22T15:24:58.911Z,63.05
2023-02-22T15:27:26.243Z,63.30
2023-02-22T15:30:01.238Z,63.46
2023-02-22T15:32:50.026Z,63.02
2023-02-22T15:35:29.846Z,63.07
2023-02-22T15:38:02.628Z,63.17
2023-02-22T15:40:33.319Z,63.44
2023-02-22T15:43:11.049Z,63.85
2023-02-22T15:45:43.297Z,63.52
2023-02-22T15:48:11.755Z,63.41
2023-02-22T15:50:39.245Z,63.33
2023-02-22T15:53:18.296Z,63.07
2023-02-22T15:55:49.842Z,63.12
2023-02-22T15:58:16.418Z,62.97
2023-02-22T16:00:46.923Z,62.77
2023-02-22T16:03:16.837Z,63.17
2023-02-22T16:05:56.828Z,63.13
2023-02-22T16:08:29.459Z,63.20
2023-02-22T16:11:04.068Z,63.18
2023-02-22T16:13:37.217Z,63.02
2023-02-22T16:16:22.534Z,63.04
2023-02-22T16:18:51.091Z,63.10
2023-02-22T16:21:23.713Z,63.15
2023-02-22T16:24:06.974Z,63.27
2023-02-22T16:26:41.470Z,63.28
2023-02-22T16:29:09.707Z,63.36
2023-02-22T16:31:39.732Z,63.38
2023-02-22T16:34:08.402Z,63.33
2023-02-22T16:36:40.057Z,63.38
2023-02-22T16:39:09.069Z,63.40
2023-02-22T16:41:35.975Z,63.58
2023-02-22T16:44:03.055Z,64.05
2023-02-22T16:46:29.879Z,64.45
2023-02-22T16:48:59.649Z,64.42
2023-02-22T16:51:28.657Z,64.82
2023-02-22T16:53:56.405Z,64.84
2023-02-22T16:56:30.836Z,64.56
2023-02-22T16:59:01.320Z,64.58
2023-02-22T17:01:28.071Z,64.72
2023-02-22T17:03:54.903Z,64.75
2023-02-22T17:06:21.717Z,64.69
2023-02-22T17:08:51.989Z,64.67
2023-02-22T17:11:19.204Z,64.31
2023-02-22T17:13:47.269Z,64.32
2023-02-22T17:16:15.464Z,64.58
2023-02-22T17:18:46.141Z,64.67
2023-02-22T17:21:13.012Z,64.76
2023-02-22T17:23:39.976Z,64.89
2023-02-22T17:26:06.550Z,65.02
2023-02-22T17:28:33.192Z,65.25
2023-02-22T17:31:01.988Z,65.82
2023-02-22T17:33:32.998Z,65.73
2023-02-22T17:36:04.940Z,65.73
2023-02-22T17:38:31.834Z,65.68
2023-02-22T17:41:03.563Z,65.89
2023-02-22T17:43:30.156Z,66.07
2023-02-22T17:45:57.329Z,66.04
2023-02-22T17:48:24.575Z,65.97
2023-02-22T17:50:52.235Z,66.06
2023-02-22T17:53:22.816Z,66.15
2023-02-22T17:55:50.473Z,66.14
2023-02-22T17:58:17.517Z,65.99
2023-02-22T18:00:50.045Z,66.17
2023-02-22T18:03:25.424Z,66.28
2023-02-22T18:05:57.596Z,66.59
2023-02-22T18:08:29.262Z,66.56
2023-02-22T18:11:02.180Z,66.59
2023-02-22T18:13:28.956Z,66.50
2023-02-22T18:16:05.081Z,66.69
2023-02-22T18:18:35.896Z,66.99
2023-02-22T18:21:03.836Z,66.81
2023-02-22T18:23:31.629Z,66.96
2023-02-22T18:26:10.564Z,66.91
2023-02-22T18:28:40.774Z,67.05
2023-02-22T18:31:15.967Z,67.06
2023-02-22T18:33:44.260Z,67.13
2023-02-22T18:36:15.578Z,67.26
2023-02-22T18:38:43.682Z,67.47
2023-02-22T18:41:16.074Z,67.38
2023-02-22T18:43:43.594Z,67.46
2023-02-22T18:46:14.544Z,67.35
2023-02-22T18:48:41.931Z,67.46
2023-02-22T18:51:13.891Z,67.39
2023-02-22T18:53:41.591Z,67.48
2023-02-22T18:56:14.230Z,67.38
2023-02-22T18:58:43.347Z,67.49
2023-02-22T19:01:16.211Z,67.34
2023-02-22T19:03:43.105Z,67.48
2023-02-22T19:06:10.402Z,67.49
2023-02-22T19:08:42.336Z,67.41
2023-02-22T19:11:10.910Z,67.62
2023-02-22T19:13:38.370Z,67.67
2023-02-22T19:16:07.431Z,67.62
2023-02-22T19:18:34.820Z,67.98
2023-02-22T19:21:04.289Z,68.08
2023-02-22T19:23:34.464Z,68.06
2023-02-22T19:26:03.954Z,68.06
2023-02-22T19:28:36.692Z,67.97
2023-02-22T19:31:11.644Z,68.06
2023-02-22T19:33:38.521Z,68.77
2023-02-22T19:36:05.533Z,68.87
2023-02-22T19:38:32.305Z,68.89
2023-02-22T19:40:58.921Z,68.79
2023-02-22T19:43:25.566Z,68.75
2023-02-22T19:45:52.186Z,68.66
2023-02-22T19:48:19.170Z,68.37
2023-02-22T19:50:49.552Z,68.26
2023-02-22T19:53:19.619Z,68.20
2023-02-22T19:55:46.195Z,68.11
2023-02-22T19:58:15.331Z,68.21
2023-02-22T20:00:42.103Z,68.04
2023-02-22T20:03:13.411Z,68.01
2023-02-22T20:05:41.527Z,67.87
2023-02-22T20:08:08.786Z,67.94
2023-02-22T20:10:35.627Z,67.86
2023-02-22T20:13:03.211Z,68.02
2023-02-22T20:15:30.099Z,68.05
2023-02-22T20:17:57.968Z,68.06
2023-02-22T20:20:25.749Z,68.03
2023-02-22T20:22:53.534Z,68.01
2023-02-22T20:25:20.530Z,68.02
2023-02-22T20:27:48.681Z,68.06
2023-02-22T20:30:18.266Z,68.07
2023-02-22T20:32:46.072Z,68.26
2023-02-22T20:35:13.603Z,68.28
2023-02-22T20:37:43.918Z,68.24
2023-02-22T20:40:11.091Z,68.40
2023-02-22T20:42:39.352Z,68.39
2023-02-22T20:45:11.902Z,68.47
2023-02-22T20:47:39.082Z,68.56
2023-02-22T20:50:07.387Z,68.50
2023-02-22T20:52:35.843Z,68.52
2023-02-22T20:55:04.402Z,68.60
2023-02-22T20:57:31.169Z,68.66
2023-02-22T20:59:57.832Z,68.50
2023-02-22T21:02:24.551Z,68.53
2023-02-22T21:04:57.753Z,68.48
2023-02-22T21:07:24.711Z,68.53
2023-02-22T21:09:53.002Z,68.60
2023-02-22T21:12:19.920Z,68.55
2023-02-22T21:14:47.584Z,68.68
2023-02-22T21:17:14.739Z,68.61
2023-02-22T21:19:42.299Z,68.65
2023-02-22T21:22:09.965Z,68.54
2023-02-22T21:24:37.846Z,68.52
2023-02-22T21:27:07.049Z,68.59
2023-02-22T21:29:35.478Z,68.71
2023-02-22T21:32:02.874Z,68.79
2023-02-22T21:34:29.902Z,68.87
2023-02-22T21:36:56.869Z,68.70
2023-02-22T21:39:28.610Z,68.57
2023-02-22T21:42:00.584Z,68.58
2023-02-22T21:44:28.237Z,68.54
2023-02-22T21:46:54.937Z,68.61
2023-02-22T21:49:25.133Z,68.63
2023-02-22T21:51:52.643Z,68.53
2023-02-22T21:54:20.151Z,68.55
2023-02-22T21:56:46.991Z,68.49
2023-02-22T21:59:18.905Z,68.60
2023-02-22T22:01:52.555Z,68.61
2023-02-22T22:04:22.474Z,68.64
2023-02-22T22:06:51.648Z,68.83
2023-02-22T22:09:19.907Z,68.84
2023-02-22T22:11:54.703Z,68.73
2023-02-22T22:14:23.580Z,68.88
2023-02-22T22:16:52.644Z,68.80
2023-02-22T22:19:20.503Z,68.68
2023-02-22T22:21:48.839Z,68.70
2023-02-22T22:24:16.068Z,68.80
2023-02-22T22:26:44.079Z,68.68
2023-02-22T22:29:11.626Z,68.60
2023-02-22T22:31:38.865Z,68.57
2023-02-22T22:34:06.178Z,68.67
2023-02-22T22:36:34.493Z,68.67
2023-02-22T22:39:01.237Z,68.59
2023-02-22T22:41:28.344Z,68.61
2023-02-22T22:43:55.748Z,68.58
2023-02-22T22:46:23.073Z,68.63
2023-02-22T22:48:49.945Z,68.45
2023-02-22T22:51:22.061Z,68.33
2023-02-22T22:53:50.582Z,68.07
2023-02-22T22:56:20.505Z,67.48
2023-02-22T22:58:53.695Z,67.19
2023-02-22T23:01:34.257Z,66.79
2023-02-22T23:04:07.967Z,66.32
2023-02-22T23:06:46.391Z,66.06
2023-02-22T23:09:21.924Z,65.96
2023-02-22T23:11:53.383Z,65.73
2023-02-22T23:14:24.261Z,65.77
2023-02-22T23:16:55.371Z,65.58
2023-02-22T23:19:21.966Z,65.56
2023-02-22T23:21:49.788Z,65.24
2023-02-22T23:24:20.025Z,65.36
2023-02-22T23:26:49.826Z,65.19
2023-02-22T23:29:18.855Z,64.89
2023-02-22T23:31:48.467Z,64.64
2023-02-22T23:34:21.350Z,64.77
2023-02-22T23:36:49.344Z,64.90
2023-02-22T23:39:20.713Z,64.43
2023-02-22T23:42:00.174Z,64.43
2023-02-22T23:44:28.039Z,64.14
2023-02-22T23:46:56.823Z,64.07
2023-02-22T23:49:27.262Z,64.26
2023-02-22T23:51:54.216Z,64.33
2023-02-22T23:54:21.607Z,64.23
2023-02-22T23:57:02.392Z,64.15
2023-02-22T23:59:32.769Z,63.67
